Terminal Aerodrome Forecast
Issued by NWS

Home | Current Version | Previous Version | Text Only | Print | Product List | Glossary On
Versions: 1 2 3 4 5 6 7 8 9 10 11 12 13 14 15 16 17 18 19
000
FTAK31 PAJN 290600 AAA
TAFASI
TAF AMD
PASI 290622Z 2906/3006 VRB04KT 6SM -RA BR BKN030 OVC050
      TEMPO 2910/2914 4SM -RA BR SCT010 BKN020 OVC040
     FM291500 14005KT P6SM -RA SCT010 BKN025 OVC050
     FM291800 16005KT P6SM -RA SCT025 OVC050
     FM292100 18008KT P6SM -RA OVC050
     FM300300 21006KT P6SM -RA SCT020 BKN040 OVC060=

USA.gov is the U.S. government's official web portal to all federal, state and local government web resources and services.